Avu Avu Airport


Codes: AGGJ/AVU
Name: Avu Avu Airport
City:
Country: Solomon Islands
Elevation: 25 ft.

Photos at Avu Avu Airport


   Photos courtesy of SpottingLog. You can add your own sightings and photos by signing up for a free trial today.



No photos found.

Weather at Avu Avu Airport


Time (UTC)DescriptionTempratureWindCloud coverageVisibilityPressureHumidity
19-Apr-2024 03:00Light Rain29°C4 mph, S49%10000m1008hPa78%
19-Apr-2024 06:00Light Rain29°C2 mph, S47%10000m1008hPa80%
19-Apr-2024 09:00Light Rain28°C2 mph, NE52%10000m1010hPa84%
19-Apr-2024 12:00Light Rain27°C2 mph, N72%10000m1011hPa87%
19-Apr-2024 15:00Light Rain27°C2 mph, NW72%10000m1010hPa88%
19-Apr-2024 18:00Light Rain27°C2 mph, NW66%10000m1010hPa88%
19-Apr-2024 21:00Scattered Clouds28°C2 mph, NW46%10000m1012hPa85%
20-Apr-2024 00:00Broken Clouds31°C4 mph, SE51%10000m1011hPa67%
20-Apr-2024 03:00Light Rain29°C4 mph, S47%9450m1009hPa83%
20-Apr-2024 06:00Moderate Rain28°C2 mph, S59%10000m1009hPa85%
20-Apr-2024 09:00Light Rain27°C2 mph, N77%10000m1010hPa88%
20-Apr-2024 12:00Broken Clouds27°C2 mph, N75%10000m1011hPa86%
20-Apr-2024 15:00Light Rain27°C0 mph, N59%10000m1010hPa86%
20-Apr-2024 18:00Light Rain27°C2 mph, N63%10000m1010hPa86%
20-Apr-2024 21:00Light Rain28°C2 mph, N79%10000m1011hPa83%
21-Apr-2024 00:00Light Rain30°C4 mph, SW55%10000m1011hPa78%
21-Apr-2024 03:00Moderate Rain29°C2 mph, S87%4900m1009hPa83%
21-Apr-2024 06:00Moderate Rain28°C2 mph, S95%10000m1009hPa85%
21-Apr-2024 09:00Light Rain27°C2 mph, S87%10000m1011hPa86%
21-Apr-2024 12:00Light Rain27°C2 mph, NE71%10000m1011hPa86%
21-Apr-2024 15:00Light Rain26°C2 mph, NE57%10000m1010hPa87%
21-Apr-2024 18:00Light Rain26°C2 mph, N44%10000m1010hPa86%
21-Apr-2024 21:00Scattered Clouds28°C0 mph, E40%10000m1012hPa82%
22-Apr-2024 00:00Broken Clouds30°C2 mph, S69%10000m1011hPa71%
22-Apr-2024 03:00Light Rain29°C4 mph, SE100%10000m1009hPa77%
22-Apr-2024 06:00Light Rain28°C2 mph, S100%10000m1009hPa86%
22-Apr-2024 09:00Light Rain27°C2 mph, E100%10000m1011hPa87%
22-Apr-2024 12:00Overcast Clouds27°C2 mph, E100%10000m1011hPa88%
22-Apr-2024 15:00Light Rain26°C4 mph, NE100%10000m1010hPa90%
22-Apr-2024 18:00Broken Clouds26°C4 mph, NE79%10000m1010hPa88%
22-Apr-2024 21:00Clear Sky27°C2 mph, NE10%10000m1012hPa81%
23-Apr-2024 00:00Few Clouds31°C4 mph, SE12%10000m1011hPa61%
23-Apr-2024 03:00Light Rain31°C9 mph, SE42%10000m1009hPa67%
23-Apr-2024 06:00Light Rain29°C7 mph, SE67%10000m1009hPa79%
23-Apr-2024 09:00Broken Clouds27°C7 mph, E80%10000m1011hPa86%
23-Apr-2024 12:00Broken Clouds27°C7 mph, E57%10000m1011hPa87%
23-Apr-2024 15:00Clear Sky26°C4 mph, E10%10000m1010hPa88%
23-Apr-2024 18:00Broken Clouds26°C4 mph, E52%10000m1010hPa87%
23-Apr-2024 21:00Scattered Clouds28°C4 mph, E49%10000m1012hPa82%
24-Apr-2024 00:00Broken Clouds31°C7 mph, SE62%10000m1011hPa64%